createdAt,value
2023-01-01T00:00:33.758Z,13.97
2023-01-01T00:01:38.086Z,13.96
2023-01-01T00:02:42.414Z,13.95
2023-01-01T00:03:46.753Z,13.96
2023-01-01T00:04:51.993Z,13.96
2023-01-01T00:05:55.966Z,13.95
2023-01-01T00:07:00.336Z,13.95
2023-01-01T00:08:05.441Z,13.95
2023-01-01T00:09:09.056Z,13.95
2023-01-01T00:10:13.413Z,13.94
2023-01-01T00:11:17.693Z,13.95
2023-01-01T00:12:22.138Z,13.95
2023-01-01T00:13:26.415Z,13.95
2023-01-01T00:14:30.809Z,13.95
2023-01-01T00:15:35.141Z,13.96
2023-01-01T00:16:39.375Z,13.96
2023-01-01T00:17:43.762Z,13.95
2023-01-01T00:18:48.026Z,13.97
2023-01-01T00:19:55.436Z,13.97
2023-01-01T00:20:58.886Z,13.97
2023-01-01T00:22:27.901Z,13.96
2023-01-01T00:23:07.507Z,13.97
2023-01-01T00:24:11.872Z,13.97
2023-01-01T00:25:16.086Z,13.97
2023-01-01T00:26:20.530Z,13.97
2023-01-01T00:27:24.888Z,13.97
2023-01-01T00:28:29.112Z,13.97
2023-01-01T00:29:33.583Z,13.98
2023-01-01T00:30:38.001Z,13.97
2023-01-01T00:31:42.340Z,13.97
2023-01-01T00:32:54.738Z,13.97
2023-01-01T00:33:51.005Z,13.96
2023-01-01T00:34:55.329Z,13.96
2023-01-01T00:35:59.671Z,13.95
2023-01-01T00:37:03.999Z,13.95
2023-01-01T00:38:08.359Z,13.95
2023-01-01T00:39:12.692Z,13.95
2023-01-01T00:40:17.037Z,13.95
2023-01-01T00:41:21.384Z,13.94
2023-01-01T00:42:25.749Z,13.93
2023-01-01T00:43:30.113Z,13.94
2023-01-01T00:44:34.424Z,13.93
2023-01-01T00:45:38.875Z,13.93
2023-01-01T00:46:43.190Z,13.93
2023-01-01T00:47:47.410Z,13.92
2023-01-01T00:48:51.820Z,13.91
2023-01-01T00:49:56.136Z,13.92
2023-01-01T00:51:00.438Z,13.92
2023-01-01T00:52:04.763Z,13.92
2023-01-01T00:53:09.083Z,13.92
2023-01-01T00:54:13.425Z,13.92
2023-01-01T00:55:17.691Z,13.92
2023-01-01T00:56:22.169Z,13.91
2023-01-01T00:57:26.489Z,13.91
2023-01-01T00:58:30.818Z,13.91
2023-01-01T00:59:35.222Z,13.91
2023-01-01T01:00:39.560Z,13.92
2023-01-01T01:01:44.049Z,13.92
2023-01-01T01:02:48.262Z,13.93
2023-01-01T01:03:52.517Z,13.92
2023-01-01T01:04:56.782Z,13.91
2023-01-01T01:06:01.193Z,13.92
2023-01-01T01:07:05.530Z,13.92
2023-01-01T01:08:09.752Z,13.93
2023-01-01T01:09:14.120Z,13.92
2023-01-01T01:10:18.427Z,13.92
2023-01-01T01:11:22.808Z,13.92
2023-01-01T01:12:27.124Z,13.93
2023-01-01T01:13:31.350Z,13.94
2023-01-01T01:14:35.657Z,13.94
2023-01-01T01:15:40.160Z,13.95
2023-01-01T01:16:44.537Z,13.95
2023-01-01T01:17:48.801Z,13.95
2023-01-01T01:18:53.124Z,13.96
2023-01-01T01:19:57.477Z,13.96
2023-01-01T01:21:00.809Z,13.95
2023-01-01T01:22:05.095Z,13.95
2023-01-01T01:23:09.376Z,13.95
2023-01-01T01:24:13.747Z,13.95
2023-01-01T01:25:18.124Z,13.95
2023-01-01T01:26:25.343Z,13.94
2023-01-01T01:27:28.823Z,13.94
2023-01-01T01:28:33.063Z,13.95
2023-01-01T01:29:37.472Z,13.94
2023-01-01T01:30:41.757Z,13.93
2023-01-01T01:31:45.925Z,13.93
2023-01-01T01:32:50.242Z,13.93
2023-01-01T01:33:54.530Z,13.92
2023-01-01T01:34:58.941Z,13.92
2023-01-01T01:36:04.234Z,13.92
2023-01-01T01:37:08.235Z,13.92
2023-01-01T01:38:12.459Z,13.91
2023-01-01T01:39:16.848Z,13.91
2023-01-01T01:40:21.167Z,13.91
2023-01-01T01:41:29.239Z,13.91
2023-01-01T01:42:45.972Z,13.91
2023-01-01T01:43:48.755Z,13.91
2023-01-01T01:44:52.982Z,13.91
2023-01-01T01:45:57.468Z,13.92
2023-01-01T01:47:01.811Z,13.93
2023-01-01T01:48:06.085Z,13.93
2023-01-01T01:49:10.427Z,13.93
2023-01-01T01:50:14.737Z,13.93
2023-01-01T01:51:19.080Z,13.93
2023-01-01T01:52:26.619Z,13.94
2023-01-01T01:53:30.120Z,13.94
2023-01-01T01:54:34.330Z,13.95
2023-01-01T01:55:38.676Z,13.95
2023-01-01T01:56:43.153Z,13.94
2023-01-01T01:57:47.620Z,13.94
2023-01-01T01:58:51.797Z,13.94
2023-01-01T01:59:56.112Z,13.93
2023-01-01T02:01:00.555Z,13.92
2023-01-01T02:02:04.888Z,13.91
2023-01-01T02:03:09.144Z,13.91
2023-01-01T02:04:13.353Z,13.91
2023-01-01T02:05:17.779Z,13.91
2023-01-01T02:06:22.140Z,13.91
2023-01-01T02:07:26.496Z,13.91
2023-01-01T02:08:30.810Z,13.91
2023-01-01T02:09:35.128Z,13.90
2023-01-01T02:10:39.485Z,13.90
2023-01-01T02:11:43.792Z,13.91
2023-01-01T02:12:48.122Z,13.91
2023-01-01T02:13:52.459Z,13.91
2023-01-01T02:14:56.776Z,13.92
2023-01-01T02:16:01.187Z,13.92
2023-01-01T02:17:05.434Z,13.92
2023-01-01T02:18:09.762Z,13.93
2023-01-01T02:19:14.105Z,13.93
2023-01-01T02:20:18.381Z,13.92
2023-01-01T02:21:22.770Z,13.93
2023-01-01T02:22:27.071Z,13.92
2023-01-01T02:23:31.290Z,13.92
2023-01-01T02:24:35.663Z,13.93
2023-01-01T02:25:40.037Z,13.93
2023-01-01T02:26:44.343Z,13.93
2023-01-01T02:27:48.670Z,13.93
2023-01-01T02:28:52.920Z,13.93
2023-01-01T02:29:57.323Z,13.93
2023-01-01T02:31:01.686Z,13.93
2023-01-01T02:32:06.012Z,13.94
2023-01-01T02:33:10.377Z,13.93
2023-01-01T02:34:14.655Z,13.93
2023-01-01T02:35:18.829Z,13.94
2023-01-01T02:36:26.163Z,13.93
2023-01-01T02:37:29.532Z,13.93
2023-01-01T02:38:33.680Z,13.92
2023-01-01T02:39:38.233Z,13.92
2023-01-01T02:40:42.476Z,13.93
2023-01-01T02:41:46.843Z,13.93
2023-01-01T02:42:51.188Z,13.93
2023-01-01T02:44:59.766Z,13.94
2023-01-01T02:46:04.133Z,13.94
2023-01-01T02:47:08.386Z,13.96
2023-01-01T02:48:12.801Z,13.96
2023-01-01T02:49:17.080Z,13.97
2023-01-01T02:50:21.421Z,13.98
2023-01-01T02:51:25.683Z,13.98
2023-01-01T02:52:29.980Z,13.98
2023-01-01T02:53:34.284Z,13.98
2023-01-01T02:54:38.595Z,13.98
2023-01-01T02:55:43.015Z,13.97
2023-01-01T02:56:47.257Z,13.97
2023-01-01T02:57:51.533Z,13.97
2023-01-01T02:58:55.839Z,13.97
2023-01-01T03:00:00.157Z,13.97
2023-01-01T03:01:04.607Z,13.97
2023-01-01T03:02:09.143Z,13.96
2023-01-01T03:03:13.315Z,13.96
2023-01-01T03:04:17.446Z,13.95
2023-01-01T03:05:21.772Z,13.95
2023-01-01T03:06:32.075Z,13.94
2023-01-01T03:07:34.944Z,13.94
2023-01-01T03:08:39.398Z,13.94
2023-01-01T03:09:43.574Z,13.94
2023-01-01T03:10:47.917Z,13.93
2023-01-01T03:11:52.230Z,13.93
2023-01-01T03:12:56.526Z,13.93
2023-01-01T03:14:00.891Z,13.93
2023-01-01T03:15:05.165Z,13.93
2023-01-01T03:16:09.506Z,13.93
2023-01-01T03:17:13.807Z,13.93
2023-01-01T03:18:27.067Z,13.92
2023-01-01T03:19:29.737Z,13.91
2023-01-01T03:20:34.012Z,13.91
2023-01-01T03:21:38.228Z,13.91
2023-01-01T03:23:49.888Z,13.91
2023-01-01T03:24:51.217Z,13.91
2023-01-01T03:26:09.656Z,13.91
2023-01-01T03:27:12.566Z,13.91
2023-01-01T03:28:16.891Z,13.92
2023-01-01T03:29:21.150Z,13.92
2023-01-01T03:30:25.408Z,13.93
2023-01-01T03:31:29.894Z,13.93
2023-01-01T03:32:34.026Z,13.94
2023-01-01T03:33:38.332Z,13.94
2023-01-01T03:34:42.602Z,13.95
2023-01-01T03:35:46.921Z,13.95
2023-01-01T03:36:51.267Z,13.96
2023-01-01T03:37:55.571Z,13.96
2023-01-01T03:38:59.799Z,13.97
2023-01-01T03:40:04.096Z,13.97
2023-01-01T03:41:08.497Z,13.98
2023-01-01T03:42:12.800Z,13.99
2023-01-01T03:43:17.106Z,13.99
2023-01-01T03:44:21.433Z,14.00
2023-01-01T03:45:25.747Z,14.01
2023-01-01T03:46:30.045Z,14.01
2023-01-01T03:47:34.332Z,14.02
2023-01-01T03:48:38.624Z,14.02
2023-01-01T03:49:42.930Z,14.03
2023-01-01T03:50:47.193Z,14.04
2023-01-01T03:51:51.544Z,14.05
2023-01-01T03:52:55.817Z,14.06
2023-01-01T03:54:00.185Z,14.07
2023-01-01T03:55:04.496Z,14.08
2023-01-01T03:56:08.796Z,14.09
2023-01-01T03:57:27.150Z,14.11
2023-01-01T03:58:30.212Z,14.08
2023-01-01T03:59:34.565Z,14.02
2023-01-01T04:00:38.781Z,14.00
2023-01-01T04:01:43.281Z,13.96
2023-01-01T04:02:47.524Z,13.97
2023-01-01T04:03:51.783Z,13.94
2023-01-01T04:04:56.034Z,13.92
2023-01-01T04:06:00.382Z,13.87
2023-01-01T04:07:14.868Z,13.83
2023-01-01T04:08:08.908Z,13.84
2023-01-01T04:09:13.176Z,13.85
2023-01-01T04:10:17.663Z,13.88
2023-01-01T04:11:21.777Z,13.88
2023-01-01T04:12:26.145Z,13.87
2023-01-01T04:13:30.460Z,13.88
2023-01-01T04:14:34.724Z,13.87
2023-01-01T04:15:39.030Z,13.84
2023-01-01T04:16:43.353Z,13.82
2023-01-01T04:17:47.674Z,13.81
2023-01-01T04:18:51.997Z,13.85
2023-01-01T04:19:56.304Z,13.77
2023-01-01T04:21:00.663Z,13.75
2023-01-01T04:22:04.945Z,13.75
2023-01-01T04:23:09.270Z,13.79
2023-01-01T04:24:13.542Z,13.78
2023-01-01T04:25:17.863Z,13.74
2023-01-01T04:26:22.177Z,13.75
2023-01-01T04:27:26.533Z,13.76
2023-01-01T04:28:30.796Z,13.73
2023-01-01T04:29:36.038Z,13.70
2023-01-01T04:31:44.234Z,13.67
2023-01-01T04:32:48.633Z,13.67
2023-01-01T04:33:53.005Z,13.63
2023-01-01T04:34:57.340Z,13.62
2023-01-01T04:36:01.668Z,13.61
2023-01-01T04:37:11.380Z,13.62
2023-01-01T04:38:10.239Z,13.65
2023-01-01T04:39:14.568Z,13.65
2023-01-01T04:40:18.850Z,13.65
2023-01-01T04:41:23.203Z,13.67
2023-01-01T04:42:27.489Z,13.69
2023-01-01T04:43:31.875Z,13.72
2023-01-01T04:44:36.142Z,13.74
2023-01-01T04:45:40.498Z,13.74
2023-01-01T04:46:44.823Z,13.74
2023-01-01T04:47:49.109Z,13.74
2023-01-01T04:49:07.528Z,13.71
2023-01-01T04:50:10.648Z,13.69
2023-01-01T04:51:14.837Z,13.68
2023-01-01T04:52:19.228Z,13.67
2023-01-01T04:53:23.443Z,13.68
2023-01-01T04:54:27.807Z,13.69
2023-01-01T04:55:32.134Z,13.69
2023-01-01T04:56:36.410Z,13.71
2023-01-01T04:57:40.747Z,13.71
2023-01-01T04:58:45.012Z,13.69
2023-01-01T04:59:49.319Z,13.71
2023-01-01T05:01:07.880Z,13.72
2023-01-01T05:02:10.675Z,13.73
2023-01-01T05:03:14.910Z,13.74
2023-01-01T05:04:19.278Z,13.77
2023-01-01T05:05:23.507Z,13.75
2023-01-01T05:06:27.802Z,13.74
2023-01-01T05:07:32.105Z,13.76
2023-01-01T05:08:36.381Z,13.78
2023-01-01T05:09:40.710Z,13.78
2023-01-01T05:10:45.020Z,13.78
2023-01-01T05:11:49.278Z,13.78
2023-01-01T05:12:53.591Z,13.76
2023-01-01T05:13:57.864Z,13.73
2023-01-01T05:15:02.280Z,13.74
2023-01-01T05:16:06.646Z,13.72
2023-01-01T05:17:10.946Z,13.72
2023-01-01T05:18:15.196Z,13.71
2023-01-01T05:19:19.465Z,13.70
2023-01-01T05:20:23.869Z,13.70
2023-01-01T05:21:28.132Z,13.68
2023-01-01T05:22:32.490Z,13.69
2023-01-01T05:23:36.853Z,13.70
2023-01-01T05:24:41.095Z,13.69
2023-01-01T05:25:45.421Z,13.67
2023-01-01T05:26:49.733Z,13.67
2023-01-01T05:27:54.104Z,13.66
2023-01-01T05:28:58.433Z,13.67
2023-01-01T05:30:02.791Z,13.68
2023-01-01T05:31:07.114Z,13.70
2023-01-01T05:33:15.736Z,13.69
2023-01-01T05:34:20.133Z,13.66
2023-01-01T05:35:26.571Z,13.64
2023-01-01T05:36:28.654Z,13.64
2023-01-01T05:37:32.915Z,13.62
2023-01-01T05:38:37.298Z,13.62
2023-01-01T05:39:41.596Z,13.60
2023-01-01T05:40:45.888Z,13.59
2023-01-01T05:41:50.216Z,13.57
2023-01-01T05:42:54.492Z,13.57
2023-01-01T05:43:58.765Z,13.59
2023-01-01T05:45:17.090Z,13.60
2023-01-01T05:46:20.300Z,13.61
2023-01-01T05:47:28.188Z,13.59
2023-01-01T05:48:28.633Z,13.60
2023-01-01T05:49:32.998Z,13.62
2023-01-01T05:50:37.258Z,13.63
2023-01-01T05:52:45.793Z,13.63
2023-01-01T05:53:50.107Z,13.65
2023-01-01T05:54:54.408Z,13.63
2023-01-01T05:55:58.793Z,13.64
2023-01-01T05:57:03.070Z,13.65
2023-01-01T05:58:07.350Z,13.65
2023-01-01T05:59:11.692Z,13.64
2023-01-01T06:00:16.081Z,13.63
2023-01-01T06:01:20.548Z,13.64
2023-01-01T06:02:24.845Z,13.64
2023-01-01T06:03:29.090Z,13.65
2023-01-01T06:04:33.417Z,13.66
2023-01-01T06:05:51.695Z,13.67
2023-01-01T06:06:54.925Z,13.66
2023-01-01T06:07:59.268Z,13.63
2023-01-01T06:09:03.507Z,13.62
2023-01-01T06:10:07.800Z,13.63
2023-01-01T06:11:12.191Z,13.65
2023-01-01T06:12:16.475Z,13.64
2023-01-01T06:13:20.872Z,13.63
2023-01-01T06:14:25.283Z,13.66
2023-01-01T06:15:29.563Z,13.70
2023-01-01T06:16:34.140Z,13.71
2023-01-01T06:17:38.353Z,13.69
2023-01-01T06:18:42.524Z,13.69
2023-01-01T06:19:46.896Z,13.70
2023-01-01T06:20:51.254Z,13.73
2023-01-01T06:21:55.606Z,13.75
2023-01-01T06:22:59.953Z,13.74
2023-01-01T06:24:04.242Z,13.76
2023-01-01T06:25:08.577Z,13.78
2023-01-01T06:26:12.833Z,13.79
2023-01-01T06:27:17.102Z,13.76
2023-01-01T06:28:21.450Z,13.74
2023-01-01T06:29:25.781Z,13.73
2023-01-01T06:30:30.207Z,13.74
2023-01-01T06:31:40.486Z,13.74
2023-01-01T06:32:38.775Z,13.73
2023-01-01T06:33:43.115Z,13.73
2023-01-01T06:34:47.542Z,13.73
2023-01-01T06:35:51.767Z,13.72
2023-01-01T06:37:00.114Z,13.71
2023-01-01T06:38:00.381Z,13.73
2023-01-01T06:40:32.032Z,13.70
2023-01-01T06:41:36.216Z,13.70
2023-01-01T06:42:40.572Z,13.69
2023-01-01T06:43:44.947Z,13.69
2023-01-01T06:44:49.164Z,13.70
2023-01-01T06:45:53.521Z,13.70
2023-01-01T06:46:57.812Z,13.69
2023-01-01T06:48:02.136Z,13.67
2023-01-01T06:49:06.554Z,13.65
2023-01-01T06:50:10.908Z,13.64
2023-01-01T06:51:15.162Z,13.61
2023-01-01T06:52:19.432Z,13.62
2023-01-01T06:53:23.749Z,13.63
2023-01-01T06:54:28.081Z,13.62
2023-01-01T06:55:32.322Z,13.61
2023-01-01T06:56:39.644Z,13.60
2023-01-01T06:57:43.099Z,13.60
2023-01-01T06:58:47.356Z,13.61
2023-01-01T06:59:51.624Z,13.58
2023-01-01T07:00:56.040Z,13.60
2023-01-01T07:02:00.456Z,13.57
2023-01-01T07:03:04.751Z,13.56
2023-01-01T07:04:08.878Z,13.53
2023-01-01T07:05:13.237Z,13.53
2023-01-01T07:06:31.533Z,13.51
2023-01-01T07:07:36.151Z,13.53
2023-01-01T07:08:38.859Z,13.53
2023-01-01T07:09:43.138Z,13.54
2023-01-01T07:10:47.487Z,13.56
2023-01-01T07:11:51.848Z,13.56
2023-01-01T07:12:56.200Z,13.56
2023-01-01T07:14:00.489Z,13.56
2023-01-01T07:15:04.740Z,13.54
2023-01-01T07:16:12.997Z,13.50
2023-01-01T07:17:13.425Z,13.52
2023-01-01T07:18:17.686Z,13.52
2023-01-01T07:19:22.079Z,13.50
2023-01-01T07:20:26.486Z,13.49
2023-01-01T07:21:30.752Z,13.50
2023-01-01T07:22:35.095Z,13.46
2023-01-01T07:23:39.436Z,13.48
2023-01-01T07:24:43.679Z,13.48
2023-01-01T07:25:47.966Z,13.49
2023-01-01T07:26:52.312Z,13.45
2023-01-01T07:27:56.617Z,13.40
2023-01-01T07:29:08.477Z,13.41
2023-01-01T07:30:19.276Z,13.37
2023-01-01T07:31:22.224Z,13.36
2023-01-01T07:32:26.496Z,13.35
2023-01-01T07:33:30.747Z,13.38
2023-01-01T07:34:35.063Z,13.39
2023-01-01T07:35:39.428Z,13.37
2023-01-01T07:36:43.770Z,13.36
2023-01-01T07:37:48.123Z,13.35
2023-01-01T07:39:06.421Z,13.35
2023-01-01T07:40:09.562Z,13.37
2023-01-01T07:41:13.773Z,13.32
2023-01-01T07:42:18.116Z,13.33
2023-01-01T07:43:22.395Z,13.32
2023-01-01T07:44:26.682Z,13.31
2023-01-01T07:45:31.028Z,13.27
2023-01-01T07:46:35.349Z,13.27
2023-01-01T07:47:39.634Z,13.22
2023-01-01T07:48:43.903Z,13.21
2023-01-01T07:49:48.292Z,13.20
2023-01-01T07:51:06.635Z,13.17
2023-01-01T07:52:09.660Z,13.13
2023-01-01T07:53:13.943Z,13.16
2023-01-01T07:54:18.285Z,13.11
2023-01-01T07:55:22.603Z,13.10
2023-01-01T07:56:26.937Z,13.04
2023-01-01T07:57:34.302Z,13.03
2023-01-01T07:58:37.719Z,12.99
2023-01-01T07:59:42.069Z,12.99
2023-01-01T08:00:46.338Z,12.99
2023-01-01T08:01:50.744Z,12.95
2023-01-01T08:02:54.993Z,12.91
2023-01-01T08:03:59.235Z,12.92
2023-01-01T08:05:03.607Z,12.88
2023-01-01T08:06:07.891Z,12.90
2023-01-01T08:07:12.158Z,12.92
2023-01-01T08:08:16.449Z,12.94
2023-01-01T08:09:20.818Z,12.88
2023-01-01T08:10:25.080Z,12.87
2023-01-01T08:11:29.445Z,12.89
2023-01-01T08:12:33.732Z,12.86
2023-01-01T08:13:38.027Z,12.86
2023-01-01T08:14:42.335Z,12.87
2023-01-01T08:15:46.661Z,12.90
2023-01-01T08:16:50.921Z,12.90
2023-01-01T08:17:55.293Z,12.88
2023-01-01T08:18:59.600Z,12.84
2023-01-01T08:20:03.829Z,12.84
2023-01-01T08:21:08.143Z,12.84
2023-01-01T08:22:12.551Z,12.86
2023-01-01T08:23:16.915Z,12.87
2023-01-01T08:24:21.257Z,12.80
2023-01-01T08:25:25.605Z,12.81
2023-01-01T08:26:29.890Z,12.78
2023-01-01T08:27:34.186Z,12.78
2023-01-01T08:28:38.465Z,12.79
2023-01-01T08:29:42.792Z,12.80
2023-01-01T08:30:47.047Z,12.79
2023-01-01T08:31:51.366Z,12.79
2023-01-01T08:32:55.700Z,12.78
2023-01-01T08:34:00.014Z,12.75
2023-01-01T08:35:04.282Z,12.73
2023-01-01T08:36:08.583Z,12.72
2023-01-01T08:37:12.989Z,12.71
2023-01-01T08:38:17.265Z,12.73
2023-01-01T08:39:21.640Z,12.68
2023-01-01T08:40:25.891Z,12.67
2023-01-01T08:41:30.279Z,12.61
2023-01-01T08:42:34.509Z,12.60
2023-01-01T08:43:38.903Z,12.62
2023-01-01T08:44:43.277Z,12.63
2023-01-01T08:45:47.611Z,12.57
2023-01-01T08:46:52.016Z,12.59
2023-01-01T08:47:56.251Z,12.55
2023-01-01T08:49:00.591Z,12.57
2023-01-01T08:50:04.873Z,12.56
2023-01-01T08:51:09.143Z,12.57
2023-01-01T08:52:13.472Z,12.61
2023-01-01T08:53:17.854Z,12.62
2023-01-01T08:54:22.210Z,12.60
2023-01-01T08:55:26.428Z,12.63
2023-01-01T08:56:44.730Z,12.68
2023-01-01T08:57:47.709Z,12.56
2023-01-01T08:59:03.816Z,12.55
2023-01-01T09:00:00.905Z,12.59
2023-01-01T09:01:05.191Z,12.60
2023-01-01T09:02:09.738Z,12.60
2023-01-01T09:03:14.020Z,12.58
2023-01-01T09:04:18.269Z,12.59
2023-01-01T09:05:22.586Z,12.49
2023-01-01T09:06:29.851Z,12.49
2023-01-01T09:07:33.260Z,12.53
2023-01-01T09:08:37.698Z,12.53
2023-01-01T09:09:41.908Z,12.54
2023-01-01T09:10:46.290Z,12.50
2023-01-01T09:12:04.596Z,12.53
2023-01-01T09:13:07.772Z,12.47
2023-01-01T09:14:12.083Z,12.35
2023-01-01T09:15:19.358Z,12.35
2023-01-01T09:16:22.890Z,12.29
2023-01-01T09:17:27.097Z,12.31
2023-01-01T09:18:31.418Z,12.38
2023-01-01T09:19:35.917Z,12.36
2023-01-01T09:20:40.118Z,12.41
2023-01-01T09:21:44.417Z,12.39
2023-01-01T09:22:48.810Z,12.33
2023-01-01T09:23:53.139Z,12.34
2023-01-01T09:25:03.517Z,12.37
2023-01-01T09:26:06.428Z,12.27
2023-01-01T09:27:10.676Z,12.19
2023-01-01T09:28:17.205Z,12.12
2023-01-01T09:29:19.252Z,12.14
2023-01-01T09:30:23.647Z,12.16
2023-01-01T09:31:27.990Z,12.09
2023-01-01T09:32:32.196Z,12.15
2023-01-01T09:33:36.584Z,12.20
2023-01-01T09:34:40.985Z,12.17
2023-01-01T09:35:45.188Z,12.21
2023-01-01T09:36:49.576Z,12.25
2023-01-01T09:37:53.861Z,12.31
2023-01-01T09:38:58.164Z,12.25
2023-01-01T09:40:05.600Z,12.20
2023-01-01T09:41:09.011Z,12.09
2023-01-01T09:42:13.257Z,12.12
2023-01-01T09:43:17.582Z,12.07
2023-01-01T09:44:21.869Z,12.07
2023-01-01T09:45:26.546Z,12.16
2023-01-01T09:46:31.997Z,12.19
2023-01-01T09:47:34.879Z,12.11
2023-01-01T09:48:53.219Z,12.12
2023-01-01T09:49:56.365Z,12.00
2023-01-01T09:51:00.623Z,12.07
2023-01-01T09:52:04.869Z,12.08
2023-01-01T09:53:09.203Z,12.11
2023-01-01T09:54:13.489Z,12.14
2023-01-01T09:55:17.775Z,12.09
2023-01-01T09:56:22.077Z,12.09
2023-01-01T09:57:26.332Z,12.11
2023-01-01T09:58:30.624Z,12.17
2023-01-01T09:59:34.890Z,12.08
2023-01-01T10:00:39.162Z,12.03
2023-01-01T10:01:43.653Z,12.01
2023-01-01T10:02:51.730Z,11.93
2023-01-01T10:03:52.219Z,11.94
2023-01-01T10:04:56.544Z,11.93
2023-01-01T10:06:00.826Z,11.94
2023-01-01T10:07:05.178Z,11.93
2023-01-01T10:08:09.439Z,11.88
2023-01-01T10:09:13.729Z,11.86
2023-01-01T10:10:18.012Z,11.81
2023-01-01T10:11:22.286Z,11.80
2023-01-01T10:12:26.599Z,11.86
2023-01-01T10:13:30.867Z,11.89
2023-01-01T10:14:36.229Z,11.88
2023-01-01T10:15:40.133Z,11.90
2023-01-01T10:16:44.395Z,11.95
2023-01-01T10:17:48.750Z,11.95
2023-01-01T10:18:56.013Z,11.94
2023-01-01T10:19:59.418Z,11.94
2023-01-01T10:21:06.730Z,11.94
2023-01-01T10:22:10.091Z,11.94
2023-01-01T10:23:14.417Z,11.98
2023-01-01T10:24:18.669Z,11.94
2023-01-01T10:25:22.982Z,11.94
2023-01-01T10:26:27.321Z,11.94
2023-01-01T10:27:31.636Z,11.90
2023-01-01T10:28:35.959Z,11.92
2023-01-01T10:29:40.321Z,11.86
2023-01-01T10:30:44.666Z,11.83
2023-01-01T10:31:49.056Z,11.75
2023-01-01T10:32:53.261Z,11.70
2023-01-01T10:33:57.565Z,11.68
2023-01-01T10:35:01.873Z,11.69
2023-01-01T10:36:20.266Z,11.65
2023-01-01T10:37:23.341Z,11.57
2023-01-01T10:38:27.593Z,11.55
2023-01-01T10:39:31.886Z,11.58
2023-01-01T10:40:36.231Z,11.50
2023-01-01T10:41:40.503Z,11.53
2023-01-01T10:42:44.778Z,11.54
2023-01-01T10:43:49.088Z,11.55
2023-01-01T10:44:53.416Z,11.49
2023-01-01T10:45:57.782Z,11.52
2023-01-01T10:47:01.996Z,11.48
2023-01-01T10:48:06.391Z,11.46
2023-01-01T10:49:10.773Z,11.41
2023-01-01T10:50:14.973Z,11.44
2023-01-01T10:51:19.387Z,11.44
2023-01-01T10:52:23.630Z,11.40
2023-01-01T10:53:27.911Z,11.43
2023-01-01T10:54:32.215Z,11.45
2023-01-01T10:55:36.498Z,11.41
2023-01-01T10:56:40.835Z,11.39
2023-01-01T10:57:45.224Z,11.38
2023-01-01T10:58:49.569Z,11.38
2023-01-01T10:59:54.677Z,11.37
2023-01-01T11:01:04.364Z,11.39
2023-01-01T11:02:21.675Z,11.38
2023-01-01T11:03:24.500Z,11.42
2023-01-01T11:04:28.713Z,11.45
2023-01-01T11:05:33.049Z,11.45
2023-01-01T11:06:37.385Z,11.38
2023-01-01T11:07:47.748Z,11.36
2023-01-01T11:08:50.747Z,11.40
2023-01-01T11:10:03.212Z,11.44
2023-01-01T11:10:59.325Z,11.47
2023-01-01T11:12:09.389Z,11.43
2023-01-01T11:13:07.911Z,11.29
2023-01-01T11:14:12.168Z,11.24
2023-01-01T11:15:16.450Z,11.29
2023-01-01T11:16:20.920Z,11.29
2023-01-01T11:17:25.104Z,11.29
2023-01-01T11:18:29.391Z,11.31
2023-01-01T11:19:33.731Z,11.31
2023-01-01T11:20:38.012Z,11.32
2023-01-01T11:21:42.353Z,11.35
2023-01-01T11:22:46.646Z,11.30
2023-01-01T11:23:51.078Z,11.33
2023-01-01T11:24:55.292Z,11.34
2023-01-01T11:25:59.604Z,11.36
2023-01-01T11:27:03.915Z,11.40
2023-01-01T11:28:11.269Z,11.37
2023-01-01T11:29:14.694Z,11.41
2023-01-01T11:30:19.013Z,11.42
2023-01-01T11:31:23.309Z,11.43
2023-01-01T11:32:27.502Z,11.45
2023-01-01T11:33:31.756Z,11.50
2023-01-01T11:34:36.149Z,11.50
2023-01-01T11:35:40.510Z,11.52
2023-01-01T11:36:44.762Z,11.54
2023-01-01T11:37:49.035Z,11.59
2023-01-01T11:38:53.334Z,11.63
2023-01-01T11:39:57.729Z,11.63
2023-01-01T11:41:01.980Z,11.67
2023-01-01T11:42:06.326Z,11.71
2023-01-01T11:43:10.673Z,11.75
2023-01-01T11:44:14.945Z,11.80
2023-01-01T11:45:19.187Z,11.82
2023-01-01T11:46:23.619Z,11.76
2023-01-01T11:47:27.831Z,11.79
2023-01-01T11:48:32.184Z,11.79
2023-01-01T11:49:36.488Z,11.75
2023-01-01T11:50:40.796Z,11.76
2023-01-01T11:51:45.073Z,11.77
2023-01-01T11:52:49.379Z,11.75
2023-01-01T11:53:53.662Z,11.72
2023-01-01T11:54:57.945Z,11.66
2023-01-01T11:56:02.337Z,11.62
2023-01-01T11:57:06.596Z,11.62
2023-01-01T11:58:14.468Z,11.59
2023-01-01T11:59:15.214Z,11.50
2023-01-01T12:00:19.592Z,11.42
2023-01-01T12:01:24.019Z,11.41
2023-01-01T12:02:28.336Z,11.36
2023-01-01T12:03:33.764Z,11.34
2023-01-01T12:04:36.940Z,11.37
2023-01-01T12:05:41.271Z,11.38
2023-01-01T12:06:45.458Z,11.38
2023-01-01T12:07:49.883Z,11.39
2023-01-01T12:08:54.144Z,11.39
2023-01-01T12:09:58.469Z,11.39
2023-01-01T12:11:16.888Z,11.42
2023-01-01T12:12:20.223Z,11.41
2023-01-01T12:13:24.390Z,11.37
2023-01-01T12:14:32.740Z,11.37
2023-01-01T12:15:33.029Z,11.34
2023-01-01T12:16:37.401Z,11.34
2023-01-01T12:17:41.677Z,11.36
2023-01-01T12:18:46.021Z,11.36
2023-01-01T12:19:50.260Z,11.28
2023-01-01T12:20:54.588Z,11.27
2023-01-01T12:21:58.946Z,11.25
2023-01-01T12:23:03.275Z,11.27
2023-01-01T12:24:07.552Z,11.26
2023-01-01T12:25:11.898Z,11.27
2023-01-01T12:26:16.125Z,11.23
2023-01-01T12:27:20.743Z,11.22
2023-01-01T12:28:24.834Z,11.19
2023-01-01T12:29:29.205Z,11.18
2023-01-01T12:30:33.562Z,11.16
2023-01-01T12:31:37.899Z,11.09
2023-01-01T12:32:42.124Z,11.11
2023-01-01T12:33:46.424Z,11.10
2023-01-01T12:34:50.807Z,11.10
2023-01-01T12:35:55.109Z,11.07
2023-01-01T12:36:59.427Z,11.04
2023-01-01T12:38:03.791Z,11.05
2023-01-01T12:39:08.109Z,11.05
2023-01-01T12:40:17.072Z,11.07
2023-01-01T12:41:16.734Z,11.06
2023-01-01T12:42:21.010Z,11.04
2023-01-01T12:43:25.450Z,10.98
2023-01-01T12:44:29.583Z,10.91
2023-01-01T12:45:33.971Z,10.89
2023-01-01T12:46:38.292Z,10.86
2023-01-01T12:47:42.540Z,10.86
2023-01-01T12:48:46.809Z,10.85
2023-01-01T12:49:51.172Z,10.83
2023-01-01T12:51:01.442Z,10.86
2023-01-01T12:51:59.740Z,10.84
2023-01-01T12:54:31.287Z,10.79
2023-01-01T12:55:35.572Z,10.84
2023-01-01T12:56:39.822Z,10.84
2023-01-01T12:57:44.191Z,10.87
2023-01-01T12:58:48.472Z,10.91
2023-01-01T12:59:52.852Z,10.94
2023-01-01T13:00:57.113Z,10.90
2023-01-01T13:02:01.497Z,10.91
2023-01-01T13:03:05.851Z,10.91
2023-01-01T13:04:10.024Z,10.91
2023-01-01T13:05:14.408Z,10.89
2023-01-01T13:06:23.399Z,10.89
2023-01-01T13:07:23.029Z,10.91
2023-01-01T13:08:27.324Z,10.91
2023-01-01T13:09:31.600Z,10.86
2023-01-01T13:10:35.850Z,10.81
2023-01-01T13:11:44.927Z,10.83
2023-01-01T13:12:44.458Z,10.79
2023-01-01T13:13:48.783Z,10.85
2023-01-01T13:14:53.140Z,10.88
2023-01-01T13:15:57.459Z,10.86
2023-01-01T13:17:01.672Z,10.82
2023-01-01T13:18:05.997Z,10.72
2023-01-01T13:19:10.348Z,10.73
2023-01-01T13:20:14.739Z,10.62
2023-01-01T13:21:19.024Z,10.63
2023-01-01T13:22:23.293Z,10.67
2023-01-01T13:23:27.572Z,10.68
2023-01-01T13:24:31.884Z,10.59
2023-01-01T13:25:36.172Z,10.52
2023-01-01T13:26:40.391Z,10.53
2023-01-01T13:27:44.816Z,10.44
2023-01-01T13:28:49.149Z,10.28
2023-01-01T13:29:56.479Z,10.28
2023-01-01T13:30:59.828Z,10.32
2023-01-01T13:32:04.072Z,10.29
2023-01-01T13:33:08.421Z,10.25
2023-01-01T13:34:12.776Z,10.22
2023-01-01T13:35:17.082Z,10.26
2023-01-01T13:36:21.390Z,10.23
2023-01-01T13:37:25.733Z,10.27
2023-01-01T13:38:30.120Z,10.26
2023-01-01T13:39:34.455Z,10.32
2023-01-01T13:40:38.715Z,10.36
2023-01-01T13:41:43.077Z,10.31
2023-01-01T13:42:47.391Z,10.29
2023-01-01T13:43:54.627Z,10.26
2023-01-01T13:44:58.021Z,10.27
2023-01-01T13:46:17.735Z,10.27
2023-01-01T13:47:06.636Z,10.24
2023-01-01T13:48:16.886Z,10.20
2023-01-01T13:49:19.884Z,10.22
2023-01-01T13:50:24.193Z,10.25
2023-01-01T13:52:03.571Z,10.21
2023-01-01T13:52:32.734Z,10.22
2023-01-01T13:53:37.029Z,10.26
2023-01-01T13:54:41.393Z,10.26
2023-01-01T13:55:59.679Z,10.23
2023-01-01T13:57:02.901Z,10.15
2023-01-01T13:58:07.107Z,10.12
2023-01-01T13:59:11.430Z,10.13
2023-01-01T14:00:15.654Z,10.15
2023-01-01T14:01:20.050Z,10.16